sensor_id;sensor_type;location;lat;lon;timestamp;temperature;humidity
28773;DHT22;15925;51.222;5.678;2023-02-07T00:00:39;2.80;99.90
28773;DHT22;15925;51.222;5.678;2023-02-07T00:03:05;2.80;99.90
28773;DHT22;15925;51.222;5.678;2023-02-07T00:05:31;2.80;99.90
28773;DHT22;15925;51.222;5.678;2023-02-07T00:07:56;2.70;99.90
28773;DHT22;15925;51.222;5.678;2023-02-07T00:10:23;2.80;99.90
28773;DHT22;15925;51.222;5.678;2023-02-07T00:12:49;2.50;99.90
28773;DHT22;15925;51.222;5.678;2023-02-07T00:15:15;2.40;99.90
28773;DHT22;15925;51.222;5.678;2023-02-07T00:17:41;2.40;99.90
28773;DHT22;15925;51.222;5.678;2023-02-07T00:20:06;2.30;99.90
28773;DHT22;15925;51.222;5.678;2023-02-07T00:22:32;2.40;99.90
28773;DHT22;15925;51.222;5.678;2023-02-07T00:24:58;2.30;99.90
28773;DHT22;15925;51.222;5.678;2023-02-07T00:27:24;2.30;99.90
28773;DHT22;15925;51.222;5.678;2023-02-07T00:29:49;2.30;99.90
28773;DHT22;15925;51.222;5.678;2023-02-07T00:32:15;2.30;99.90
28773;DHT22;15925;51.222;5.678;2023-02-07T00:34:41;2.50;99.90
28773;DHT22;15925;51.222;5.678;2023-02-07T00:37:07;2.40;99.90
28773;DHT22;15925;51.222;5.678;2023-02-07T00:39:32;2.50;99.90
28773;DHT22;15925;51.222;5.678;2023-02-07T00:41:58;2.30;99.90
28773;DHT22;15925;51.222;5.678;2023-02-07T00:44:24;2.30;99.90
28773;DHT22;15925;51.222;5.678;2023-02-07T00:46:50;2.20;99.90
28773;DHT22;15925;51.222;5.678;2023-02-07T00:49:17;2.20;99.90
28773;DHT22;15925;51.222;5.678;2023-02-07T00:51:42;2.10;99.90
28773;DHT22;15925;51.222;5.678;2023-02-07T00:54:08;2.10;99.90
28773;DHT22;15925;51.222;5.678;2023-02-07T00:56:34;2.20;99.90
28773;DHT22;15925;51.222;5.678;2023-02-07T00:58:59;2.20;99.90
28773;DHT22;15925;51.222;5.678;2023-02-07T01:01:25;2.20;99.90
28773;DHT22;15925;51.222;5.678;2023-02-07T01:03:53;2.20;99.90
28773;DHT22;15925;51.222;5.678;2023-02-07T01:06:19;2.20;99.90
28773;DHT22;15925;51.222;5.678;2023-02-07T01:08:45;2.20;99.90
28773;DHT22;15925;51.222;5.678;2023-02-07T01:11:12;2.10;99.90
28773;DHT22;15925;51.222;5.678;2023-02-07T01:13:39;2.10;99.90
28773;DHT22;15925;51.222;5.678;2023-02-07T01:16:15;2.00;99.90
28773;DHT22;15925;51.222;5.678;2023-02-07T01:18:41;2.10;99.90
28773;DHT22;15925;51.222;5.678;2023-02-07T01:21:14;2.10;99.90
28773;DHT22;15925;51.222;5.678;2023-02-07T01:23:40;2.00;99.90
28773;DHT22;15925;51.222;5.678;2023-02-07T01:26:06;2.00;99.90
28773;DHT22;15925;51.222;5.678;2023-02-07T01:28:32;2.10;99.90
28773;DHT22;15925;51.222;5.678;2023-02-07T01:30:58;2.00;99.90
28773;DHT22;15925;51.222;5.678;2023-02-07T01:33:23;1.80;99.90
28773;DHT22;15925;51.222;5.678;2023-02-07T01:35:49;1.80;99.90
28773;DHT22;15925;51.222;5.678;2023-02-07T01:38:15;1.90;99.90
28773;DHT22;15925;51.222;5.678;2023-02-07T01:40:40;1.90;99.90
28773;DHT22;15925;51.222;5.678;2023-02-07T01:43:06;1.80;99.90
28773;DHT22;15925;51.222;5.678;2023-02-07T01:45:36;1.90;99.90
28773;DHT22;15925;51.222;5.678;2023-02-07T01:48:04;1.80;99.90
28773;DHT22;15925;51.222;5.678;2023-02-07T01:50:31;1.90;99.90
28773;DHT22;15925;51.222;5.678;2023-02-07T01:52:57;1.90;99.90
28773;DHT22;15925;51.222;5.678;2023-02-07T01:55:26;1.50;99.90
28773;DHT22;15925;51.222;5.678;2023-02-07T01:57:54;1.60;99.90
28773;DHT22;15925;51.222;5.678;2023-02-07T02:00:20;1.40;99.90
28773;DHT22;15925;51.222;5.678;2023-02-07T02:02:46;1.60;99.90
28773;DHT22;15925;51.222;5.678;2023-02-07T02:05:12;1.50;99.90
28773;DHT22;15925;51.222;5.678;2023-02-07T02:07:39;1.50;99.90
28773;DHT22;15925;51.222;5.678;2023-02-07T02:10:08;1.30;99.90
28773;DHT22;15925;51.222;5.678;2023-02-07T02:17:44;1.40;99.90
28773;DHT22;15925;51.222;5.678;2023-02-07T02:20:27;1.40;99.90
28773;DHT22;15925;51.222;5.678;2023-02-07T02:28:32;1.30;99.90
28773;DHT22;15925;51.222;5.678;2023-02-07T02:40:55;1.40;99.90
28773;DHT22;15925;51.222;5.678;2023-02-07T02:43:25;1.20;99.90
28773;DHT22;15925;51.222;5.678;2023-02-07T02:45:55;1.40;99.90
28773;DHT22;15925;51.222;5.678;2023-02-07T02:48:22;1.50;99.90
28773;DHT22;15925;51.222;5.678;2023-02-07T02:50:49;1.50;99.90
28773;DHT22;15925;51.222;5.678;2023-02-07T02:53:14;1.50;99.90
28773;DHT22;15925;51.222;5.678;2023-02-07T03:03:31;1.20;99.90
28773;DHT22;15925;51.222;5.678;2023-02-07T03:08:31;1.20;99.90
28773;DHT22;15925;51.222;5.678;2023-02-07T03:13:30;1.30;99.90
28773;DHT22;15925;51.222;5.678;2023-02-07T03:16:02;1.40;99.90
28773;DHT22;15925;51.222;5.678;2023-02-07T03:23:54;1.20;99.90
28773;DHT22;15925;51.222;5.678;2023-02-07T03:26:20;1.20;99.90
28773;DHT22;15925;51.222;5.678;2023-02-07T03:28:51;1.20;99.90
28773;DHT22;15925;51.222;5.678;2023-02-07T03:31:18;1.30;99.90
28773;DHT22;15925;51.222;5.678;2023-02-07T03:33:47;1.10;99.90
28773;DHT22;15925;51.222;5.678;2023-02-07T03:36:16;1.20;99.90
28773;DHT22;15925;51.222;5.678;2023-02-07T03:38:42;1.10;99.90
28773;DHT22;15925;51.222;5.678;2023-02-07T03:41:10;1.20;99.90
28773;DHT22;15925;51.222;5.678;2023-02-07T03:43:37;1.00;99.90
28773;DHT22;15925;51.222;5.678;2023-02-07T03:46:06;0.80;99.90
28773;DHT22;15925;51.222;5.678;2023-02-07T03:48:32;0.90;99.90
28773;DHT22;15925;51.222;5.678;2023-02-07T03:50:58;1.00;99.90
28773;DHT22;15925;51.222;5.678;2023-02-07T03:53:23;1.10;99.90
28773;DHT22;15925;51.222;5.678;2023-02-07T03:55:49;1.10;99.90
28773;DHT22;15925;51.222;5.678;2023-02-07T03:58:15;1.10;99.90
28773;DHT22;15925;51.222;5.678;2023-02-07T04:00:41;1.10;99.90
28773;DHT22;15925;51.222;5.678;2023-02-07T04:03:07;0.80;99.90
28773;DHT22;15925;51.222;5.678;2023-02-07T04:05:32;0.90;99.90
28773;DHT22;15925;51.222;5.678;2023-02-07T04:07:58;0.70;99.90
28773;DHT22;15925;51.222;5.678;2023-02-07T04:10:27;0.80;99.90
28773;DHT22;15925;51.222;5.678;2023-02-07T04:12:53;0.90;99.90
28773;DHT22;15925;51.222;5.678;2023-02-07T04:15:18;0.70;99.90
28773;DHT22;15925;51.222;5.678;2023-02-07T04:17:44;0.90;99.90
28773;DHT22;15925;51.222;5.678;2023-02-07T04:20:10;1.00;99.90
28773;DHT22;15925;51.222;5.678;2023-02-07T04:22:36;0.90;99.90
28773;DHT22;15925;51.222;5.678;2023-02-07T04:25:02;1.00;99.90
28773;DHT22;15925;51.222;5.678;2023-02-07T04:27:28;1.00;99.90
28773;DHT22;15925;51.222;5.678;2023-02-07T04:29:53;0.80;99.90
28773;DHT22;15925;51.222;5.678;2023-02-07T04:32:20;0.80;99.90
28773;DHT22;15925;51.222;5.678;2023-02-07T04:34:46;0.70;99.90
28773;DHT22;15925;51.222;5.678;2023-02-07T04:37:11;0.70;99.90
28773;DHT22;15925;51.222;5.678;2023-02-07T04:39:38;0.60;99.90
28773;DHT22;15925;51.222;5.678;2023-02-07T04:42:03;0.60;99.90
28773;DHT22;15925;51.222;5.678;2023-02-07T04:44:29;0.50;99.90
28773;DHT22;15925;51.222;5.678;2023-02-07T04:46:55;0.50;99.90
28773;DHT22;15925;51.222;5.678;2023-02-07T04:49:21;0.60;99.90
28773;DHT22;15925;51.222;5.678;2023-02-07T04:51:46;0.60;99.90
28773;DHT22;15925;51.222;5.678;2023-02-07T04:54:12;0.60;99.90
28773;DHT22;15925;51.222;5.678;2023-02-07T04:56:38;0.60;99.90
28773;DHT22;15925;51.222;5.678;2023-02-07T04:59:04;0.60;99.90
28773;DHT22;15925;51.222;5.678;2023-02-07T05:01:29;0.60;99.90
28773;DHT22;15925;51.222;5.678;2023-02-07T05:03:55;0.60;99.90
28773;DHT22;15925;51.222;5.678;2023-02-07T05:06:20;0.60;99.90
28773;DHT22;15925;51.222;5.678;2023-02-07T05:08:46;0.60;99.90
28773;DHT22;15925;51.222;5.678;2023-02-07T05:11:12;0.70;99.90
28773;DHT22;15925;51.222;5.678;2023-02-07T05:13:38;0.60;99.90
28773;DHT22;15925;51.222;5.678;2023-02-07T05:16:04;0.60;99.90
28773;DHT22;15925;51.222;5.678;2023-02-07T05:18:30;0.30;99.90
28773;DHT22;15925;51.222;5.678;2023-02-07T05:20:56;0.30;99.90
28773;DHT22;15925;51.222;5.678;2023-02-07T05:23:22;0.40;99.90
28773;DHT22;15925;51.222;5.678;2023-02-07T05:25:48;0.50;99.90
28773;DHT22;15925;51.222;5.678;2023-02-07T05:28:14;0.50;99.90
28773;DHT22;15925;51.222;5.678;2023-02-07T05:30:39;0.50;99.90
28773;DHT22;15925;51.222;5.678;2023-02-07T05:33:05;0.50;99.90
28773;DHT22;15925;51.222;5.678;2023-02-07T05:35:31;0.40;99.90
28773;DHT22;15925;51.222;5.678;2023-02-07T05:37:57;0.40;99.90
28773;DHT22;15925;51.222;5.678;2023-02-07T05:40:23;0.50;99.90
28773;DHT22;15925;51.222;5.678;2023-02-07T05:42:49;0.50;99.90
28773;DHT22;15925;51.222;5.678;2023-02-07T05:45:14;0.50;99.90
28773;DHT22;15925;51.222;5.678;2023-02-07T05:47:40;0.20;99.90
28773;DHT22;15925;51.222;5.678;2023-02-07T05:50:06;0.20;99.90
28773;DHT22;15925;51.222;5.678;2023-02-07T05:52:32;0.10;99.90
28773;DHT22;15925;51.222;5.678;2023-02-07T05:54:58;0.30;99.90
28773;DHT22;15925;51.222;5.678;2023-02-07T05:57:24;0.30;99.90
28773;DHT22;15925;51.222;5.678;2023-02-07T05:59:49;0.40;99.90
28773;DHT22;15925;51.222;5.678;2023-02-07T06:02:15;0.40;99.90
28773;DHT22;15925;51.222;5.678;2023-02-07T06:04:41;0.30;99.90
28773;DHT22;15925;51.222;5.678;2023-02-07T06:07:06;0.40;99.90
28773;DHT22;15925;51.222;5.678;2023-02-07T06:09:33;0.40;99.90
28773;DHT22;15925;51.222;5.678;2023-02-07T06:11:58;0.40;99.90
28773;DHT22;15925;51.222;5.678;2023-02-07T06:14:24;0.20;99.90
28773;DHT22;15925;51.222;5.678;2023-02-07T06:16:50;0.00;99.90
28773;DHT22;15925;51.222;5.678;2023-02-07T06:19:16;0.10;99.90
28773;DHT22;15925;51.222;5.678;2023-02-07T06:21:41;0.20;99.90
28773;DHT22;15925;51.222;5.678;2023-02-07T06:24:07;0.20;99.90
28773;DHT22;15925;51.222;5.678;2023-02-07T06:26:33;0.20;99.90
28773;DHT22;15925;51.222;5.678;2023-02-07T06:28:59;0.00;99.90
28773;DHT22;15925;51.222;5.678;2023-02-07T06:31:25;0.10;99.90
28773;DHT22;15925;51.222;5.678;2023-02-07T06:33:50;0.10;99.90
28773;DHT22;15925;51.222;5.678;2023-02-07T06:36:16;0.10;99.90
28773;DHT22;15925;51.222;5.678;2023-02-07T06:38:42;0.00;99.90
28773;DHT22;15925;51.222;5.678;2023-02-07T06:41:08;0.10;99.90
28773;DHT22;15925;51.222;5.678;2023-02-07T06:43:36;0.00;99.90
28773;DHT22;15925;51.222;5.678;2023-02-07T06:46:02;0.00;99.90
28773;DHT22;15925;51.222;5.678;2023-02-07T06:48:27;0.00;99.90
28773;DHT22;15925;51.222;5.678;2023-02-07T06:50:53;0.00;99.90
28773;DHT22;15925;51.222;5.678;2023-02-07T06:53:19;0.10;99.90
28773;DHT22;15925;51.222;5.678;2023-02-07T06:55:45;0.00;99.90
28773;DHT22;15925;51.222;5.678;2023-02-07T06:58:10;0.00;99.90
28773;DHT22;15925;51.222;5.678;2023-02-07T07:00:36;-0.10;99.90
28773;DHT22;15925;51.222;5.678;2023-02-07T07:03:02;-0.20;99.90
28773;DHT22;15925;51.222;5.678;2023-02-07T07:05:28;-0.20;99.90
28773;DHT22;15925;51.222;5.678;2023-02-07T07:07:54;-0.20;99.90
28773;DHT22;15925;51.222;5.678;2023-02-07T07:10:20;-0.20;99.90
28773;DHT22;15925;51.222;5.678;2023-02-07T07:12:46;0.00;99.90
28773;DHT22;15925;51.222;5.678;2023-02-07T07:15:12;-0.10;99.90
28773;DHT22;15925;51.222;5.678;2023-02-07T07:17:37;-0.20;99.90
28773;DHT22;15925;51.222;5.678;2023-02-07T07:20:03;-0.20;99.90
28773;DHT22;15925;51.222;5.678;2023-02-07T07:22:29;-0.30;99.90
28773;DHT22;15925;51.222;5.678;2023-02-07T07:24:55;-0.40;99.90
28773;DHT22;15925;51.222;5.678;2023-02-07T07:27:20;-0.40;99.90
28773;DHT22;15925;51.222;5.678;2023-02-07T07:29:46;-0.30;99.90
28773;DHT22;15925;51.222;5.678;2023-02-07T07:32:12;-0.30;99.90
28773;DHT22;15925;51.222;5.678;2023-02-07T07:34:39;-0.20;99.90
28773;DHT22;15925;51.222;5.678;2023-02-07T07:37:05;-0.20;99.90
28773;DHT22;15925;51.222;5.678;2023-02-07T07:39:30;-0.20;99.90
28773;DHT22;15925;51.222;5.678;2023-02-07T07:41:56;-0.20;99.90
28773;DHT22;15925;51.222;5.678;2023-02-07T07:44:40;-0.10;99.90
28773;DHT22;15925;51.222;5.678;2023-02-07T07:47:06;-0.10;99.90
28773;DHT22;15925;51.222;5.678;2023-02-07T07:49:32;-0.10;99.90
28773;DHT22;15925;51.222;5.678;2023-02-07T07:51:57;-0.10;99.90
28773;DHT22;15925;51.222;5.678;2023-02-07T07:54:23;-0.40;99.90
28773;DHT22;15925;51.222;5.678;2023-02-07T07:56:49;-0.40;99.90
28773;DHT22;15925;51.222;5.678;2023-02-07T07:59:15;-0.30;99.90
28773;DHT22;15925;51.222;5.678;2023-02-07T08:01:41;-0.30;99.90
28773;DHT22;15925;51.222;5.678;2023-02-07T08:04:07;-0.40;99.90
28773;DHT22;15925;51.222;5.678;2023-02-07T08:06:32;-0.40;99.90
28773;DHT22;15925;51.222;5.678;2023-02-07T08:08:58;-0.40;99.90
28773;DHT22;15925;51.222;5.678;2023-02-07T08:11:24;-0.20;99.90
28773;DHT22;15925;51.222;5.678;2023-02-07T08:13:50;-0.30;99.90
28773;DHT22;15925;51.222;5.678;2023-02-07T08:16:15;-0.20;99.90
28773;DHT22;15925;51.222;5.678;2023-02-07T08:18:41;-0.20;99.90
28773;DHT22;15925;51.222;5.678;2023-02-07T08:21:07;-0.20;99.90
28773;DHT22;15925;51.222;5.678;2023-02-07T08:23:33;-0.10;99.90
28773;DHT22;15925;51.222;5.678;2023-02-07T08:25:59;-0.10;99.90
28773;DHT22;15925;51.222;5.678;2023-02-07T08:28:24;-0.10;99.90
28773;DHT22;15925;51.222;5.678;2023-02-07T08:30:50;-0.20;99.90
28773;DHT22;15925;51.222;5.678;2023-02-07T08:33:16;-0.20;99.90
28773;DHT22;15925;51.222;5.678;2023-02-07T08:35:42;-0.20;99.90
28773;DHT22;15925;51.222;5.678;2023-02-07T08:38:08;-0.20;99.90
28773;DHT22;15925;51.222;5.678;2023-02-07T08:40:34;-0.20;99.90
28773;DHT22;15925;51.222;5.678;2023-02-07T08:43:00;-0.20;99.90
28773;DHT22;15925;51.222;5.678;2023-02-07T08:45:26;-0.10;99.90
28773;DHT22;15925;51.222;5.678;2023-02-07T08:47:52;-0.10;99.90
28773;DHT22;15925;51.222;5.678;2023-02-07T08:50:18;0.00;99.90
28773;DHT22;15925;51.222;5.678;2023-02-07T08:52:43;0.00;99.90
28773;DHT22;15925;51.222;5.678;2023-02-07T08:55:09;0.10;99.90
28773;DHT22;15925;51.222;5.678;2023-02-07T08:57:35;0.10;99.90
28773;DHT22;15925;51.222;5.678;2023-02-07T09:00:01;0.20;99.90
28773;DHT22;15925;51.222;5.678;2023-02-07T09:02:29;0.20;99.90
28773;DHT22;15925;51.222;5.678;2023-02-07T09:04:55;0.20;99.90
28773;DHT22;15925;51.222;5.678;2023-02-07T09:07:20;0.30;99.90
28773;DHT22;15925;51.222;5.678;2023-02-07T09:09:46;0.40;99.90
28773;DHT22;15925;51.222;5.678;2023-02-07T09:12:12;0.40;99.90
28773;DHT22;15925;51.222;5.678;2023-02-07T09:14:38;0.40;99.90
28773;DHT22;15925;51.222;5.678;2023-02-07T09:17:04;0.50;99.90
28773;DHT22;15925;51.222;5.678;2023-02-07T09:19:30;0.50;99.90
28773;DHT22;15925;51.222;5.678;2023-02-07T09:21:56;0.50;99.90
28773;DHT22;15925;51.222;5.678;2023-02-07T09:24:21;0.60;99.90
28773;DHT22;15925;51.222;5.678;2023-02-07T09:26:51;0.70;99.90
28773;DHT22;15925;51.222;5.678;2023-02-07T09:29:17;0.80;99.90
28773;DHT22;15925;51.222;5.678;2023-02-07T09:31:43;0.90;99.90
28773;DHT22;15925;51.222;5.678;2023-02-07T09:34:09;0.90;99.90
28773;DHT22;15925;51.222;5.678;2023-02-07T09:36:35;1.00;99.90
28773;DHT22;15925;51.222;5.678;2023-02-07T09:39:01;1.00;99.90
28773;DHT22;15925;51.222;5.678;2023-02-07T09:44:21;1.20;99.90
28773;DHT22;15925;51.222;5.678;2023-02-07T09:46:52;1.30;99.90
28773;DHT22;15925;51.222;5.678;2023-02-07T09:51:48;1.40;99.90
28773;DHT22;15925;51.222;5.678;2023-02-07T09:54:22;1.40;99.90
28773;DHT22;15925;51.222;5.678;2023-02-07T09:56:49;1.50;99.90
28773;DHT22;15925;51.222;5.678;2023-02-07T09:59:40;1.60;99.90
28773;DHT22;15925;51.222;5.678;2023-02-07T10:02:03;1.70;99.90
28773;DHT22;15925;51.222;5.678;2023-02-07T10:04:34;1.70;99.90
28773;DHT22;15925;51.222;5.678;2023-02-07T10:07:02;1.80;99.90
28773;DHT22;15925;51.222;5.678;2023-02-07T10:09:31;1.90;99.90
28773;DHT22;15925;51.222;5.678;2023-02-07T10:12:12;1.90;99.90
28773;DHT22;15925;51.222;5.678;2023-02-07T10:20:28;2.20;99.90
28773;DHT22;15925;51.222;5.678;2023-02-07T10:28:45;2.40;99.90
28773;DHT22;15925;51.222;5.678;2023-02-07T10:31:14;2.60;99.90
28773;DHT22;15925;51.222;5.678;2023-02-07T10:33:46;2.70;99.90
28773;DHT22;15925;51.222;5.678;2023-02-07T10:36:13;2.70;99.90
28773;DHT22;15925;51.222;5.678;2023-02-07T10:41:13;2.80;99.90
28773;DHT22;15925;51.222;5.678;2023-02-07T10:43:41;3.00;99.90
28773;DHT22;15925;51.222;5.678;2023-02-07T10:46:08;3.00;99.90
28773;DHT22;15925;51.222;5.678;2023-02-07T10:48:35;3.10;99.90
28773;DHT22;15925;51.222;5.678;2023-02-07T10:51:02;3.20;99.90
28773;DHT22;15925;51.222;5.678;2023-02-07T10:53:41;3.20;99.90
28773;DHT22;15925;51.222;5.678;2023-02-07T10:56:13;3.30;99.90
28773;DHT22;15925;51.222;5.678;2023-02-07T10:58:38;3.40;99.90
28773;DHT22;15925;51.222;5.678;2023-02-07T11:01:04;3.50;99.90
28773;DHT22;15925;51.222;5.678;2023-02-07T11:03:30;3.60;99.90
28773;DHT22;15925;51.222;5.678;2023-02-07T11:05:57;3.70;99.90
28773;DHT22;15925;51.222;5.678;2023-02-07T11:08:25;3.80;99.90
28773;DHT22;15925;51.222;5.678;2023-02-07T11:10:52;3.80;99.90
28773;DHT22;15925;51.222;5.678;2023-02-07T11:13:19;3.90;99.90
28773;DHT22;15925;51.222;5.678;2023-02-07T11:23:41;4.10;99.90
28773;DHT22;15925;51.222;5.678;2023-02-07T11:26:07;4.20;99.90
28773;DHT22;15925;51.222;5.678;2023-02-07T11:28:33;4.30;99.90
28773;DHT22;15925;51.222;5.678;2023-02-07T11:31:04;4.30;99.90
28773;DHT22;15925;51.222;5.678;2023-02-07T11:33:31;4.40;99.90
28773;DHT22;15925;51.222;5.678;2023-02-07T11:36:05;4.50;99.90
28773;DHT22;15925;51.222;5.678;2023-02-07T11:38:35;4.50;99.90
28773;DHT22;15925;51.222;5.678;2023-02-07T11:41:01;4.60;99.90
28773;DHT22;15925;51.222;5.678;2023-02-07T11:43:31;4.60;99.90
28773;DHT22;15925;51.222;5.678;2023-02-07T11:46:02;4.70;99.90
28773;DHT22;15925;51.222;5.678;2023-02-07T11:48:31;4.80;99.90
28773;DHT22;15925;51.222;5.678;2023-02-07T11:50:58;4.80;99.90
28773;DHT22;15925;51.222;5.678;2023-02-07T11:53:25;4.90;99.90
28773;DHT22;15925;51.222;5.678;2023-02-07T11:55:52;5.00;99.90
28773;DHT22;15925;51.222;5.678;2023-02-07T11:58:21;5.10;99.90
28773;DHT22;15925;51.222;5.678;2023-02-07T12:00:49;5.10;99.90
28773;DHT22;15925;51.222;5.678;2023-02-07T12:05:43;5.10;99.90
28773;DHT22;15925;51.222;5.678;2023-02-07T12:08:11;5.30;99.90
28773;DHT22;15925;51.222;5.678;2023-02-07T12:10:38;5.30;99.90
28773;DHT22;15925;51.222;5.678;2023-02-07T12:15:36;5.50;99.90
28773;DHT22;15925;51.222;5.678;2023-02-07T12:26:30;5.70;99.90
28773;DHT22;15925;51.222;5.678;2023-02-07T12:28:38;5.70;99.90
28773;DHT22;15925;51.222;5.678;2023-02-07T12:31:14;5.80;99.90
28773;DHT22;15925;51.222;5.678;2023-02-07T12:33:43;5.80;99.90
28773;DHT22;15925;51.222;5.678;2023-02-07T12:36:24;5.80;99.90
28773;DHT22;15925;51.222;5.678;2023-02-07T12:41:50;5.90;99.90
28773;DHT22;15925;51.222;5.678;2023-02-07T12:44:18;6.00;99.90
28773;DHT22;15925;51.222;5.678;2023-02-07T12:46:55;6.00;99.90
28773;DHT22;15925;51.222;5.678;2023-02-07T12:49:49;6.10;99.90
28773;DHT22;15925;51.222;5.678;2023-02-07T12:52:18;6.20;99.90
28773;DHT22;15925;51.222;5.678;2023-02-07T12:57:38;6.20;99.90
28773;DHT22;15925;51.222;5.678;2023-02-07T13:00:22;6.20;99.90
28773;DHT22;15925;51.222;5.678;2023-02-07T13:08:12;6.40;99.90
28773;DHT22;15925;51.222;5.678;2023-02-07T13:13:34;6.50;99.90
28773;DHT22;15925;51.222;5.678;2023-02-07T13:16:12;6.50;99.90
28773;DHT22;15925;51.222;5.678;2023-02-07T13:18:46;6.50;99.90
28773;DHT22;15925;51.222;5.678;2023-02-07T13:23:40;6.50;99.90
28773;DHT22;15925;51.222;5.678;2023-02-07T13:26:08;6.50;99.90
28773;DHT22;15925;51.222;5.678;2023-02-07T13:28:43;6.60;99.90
28773;DHT22;15925;51.222;5.678;2023-02-07T13:31:10;6.60;99.90
28773;DHT22;15925;51.222;5.678;2023-02-07T13:33:39;6.70;99.90
28773;DHT22;15925;51.222;5.678;2023-02-07T13:38:52;6.70;99.90
28773;DHT22;15925;51.222;5.678;2023-02-07T13:41:31;6.70;99.90
28773;DHT22;15925;51.222;5.678;2023-02-07T13:48:56;6.80;99.90
28773;DHT22;15925;51.222;5.678;2023-02-07T13:51:31;6.80;99.90
28773;DHT22;15925;51.222;5.678;2023-02-07T13:54:08;6.80;99.90
28773;DHT22;15925;51.222;5.678;2023-02-07T13:56:37;6.80;99.90
28773;DHT22;15925;51.222;5.678;2023-02-07T13:59:40;6.80;99.90
28773;DHT22;15925;51.222;5.678;2023-02-07T14:02:41;6.80;99.90
28773;DHT22;15925;51.222;5.678;2023-02-07T14:05:07;6.90;99.90
28773;DHT22;15925;51.222;5.678;2023-02-07T14:07:33;6.90;99.90
28773;DHT22;15925;51.222;5.678;2023-02-07T14:10:03;7.00;99.90
28773;DHT22;15925;51.222;5.678;2023-02-07T14:12:37;7.00;99.90
28773;DHT22;15925;51.222;5.678;2023-02-07T14:30:21;7.10;99.90
28773;DHT22;15925;51.222;5.678;2023-02-07T14:38:28;7.20;99.90
28773;DHT22;15925;51.222;5.678;2023-02-07T14:40:54;7.30;99.90
28773;DHT22;15925;51.222;5.678;2023-02-07T14:43:28;7.30;99.90
28773;DHT22;15925;51.222;5.678;2023-02-07T14:48:41;7.30;99.90
28773;DHT22;15925;51.222;5.678;2023-02-07T14:51:11;7.20;99.90
28773;DHT22;15925;51.222;5.678;2023-02-07T14:53:38;7.20;99.90
28773;DHT22;15925;51.222;5.678;2023-02-07T14:56:04;7.20;99.90
28773;DHT22;15925;51.222;5.678;2023-02-07T14:58:41;7.20;99.90
28773;DHT22;15925;51.222;5.678;2023-02-07T15:01:13;7.30;99.90
28773;DHT22;15925;51.222;5.678;2023-02-07T15:03:39;7.20;99.90
28773;DHT22;15925;51.222;5.678;2023-02-07T15:06:15;7.30;99.90
28773;DHT22;15925;51.222;5.678;2023-02-07T15:08:47;7.20;99.90
28773;DHT22;15925;51.222;5.678;2023-02-07T15:11:18;7.20;99.90
28773;DHT22;15925;51.222;5.678;2023-02-07T15:13:45;7.20;99.90
28773;DHT22;15925;51.222;5.678;2023-02-07T15:18:37;7.20;99.90
28773;DHT22;15925;51.222;5.678;2023-02-07T15:21:05;7.20;99.90
28773;DHT22;15925;51.222;5.678;2023-02-07T15:23:30;7.20;99.90
28773;DHT22;15925;51.222;5.678;2023-02-07T15:25:57;7.20;99.90
28773;DHT22;15925;51.222;5.678;2023-02-07T15:28:26;7.20;99.90
28773;DHT22;15925;51.222;5.678;2023-02-07T15:30:53;7.10;99.90
28773;DHT22;15925;51.222;5.678;2023-02-07T15:33:22;7.10;99.90
28773;DHT22;15925;51.222;5.678;2023-02-07T15:35:48;7.20;99.90
28773;DHT22;15925;51.222;5.678;2023-02-07T15:38:19;7.20;99.90
28773;DHT22;15925;51.222;5.678;2023-02-07T15:40:45;7.10;99.90
28773;DHT22;15925;51.222;5.678;2023-02-07T15:43:31;7.00;99.90
28773;DHT22;15925;51.222;5.678;2023-02-07T15:46:01;7.00;99.90
28773;DHT22;15925;51.222;5.678;2023-02-07T15:48:27;6.90;99.90
28773;DHT22;15925;51.222;5.678;2023-02-07T15:50:53;6.90;99.90
28773;DHT22;15925;51.222;5.678;2023-02-07T15:53:22;6.90;99.90
28773;DHT22;15925;51.222;5.678;2023-02-07T15:55:48;6.90;99.90
28773;DHT22;15925;51.222;5.678;2023-02-07T16:00:43;6.90;99.90
28773;DHT22;15925;51.222;5.678;2023-02-07T16:03:29;6.80;99.90
28773;DHT22;15925;51.222;5.678;2023-02-07T16:08:40;6.80;99.90
28773;DHT22;15925;51.222;5.678;2023-02-07T16:11:48;6.80;99.90
28773;DHT22;15925;51.222;5.678;2023-02-07T16:16:25;6.60;99.90
28773;DHT22;15925;51.222;5.678;2023-02-07T16:18:51;6.50;99.90
28773;DHT22;15925;51.222;5.678;2023-02-07T16:21:21;6.40;99.90
28773;DHT22;15925;51.222;5.678;2023-02-07T16:23:48;6.30;99.90
28773;DHT22;15925;51.222;5.678;2023-02-07T16:26:23;6.20;99.90
28773;DHT22;15925;51.222;5.678;2023-02-07T16:28:49;6.20;99.90
28773;DHT22;15925;51.222;5.678;2023-02-07T16:31:15;6.20;99.90
28773;DHT22;15925;51.222;5.678;2023-02-07T16:33:41;6.20;99.90
28773;DHT22;15925;51.222;5.678;2023-02-07T16:36:16;6.10;99.90
28773;DHT22;15925;51.222;5.678;2023-02-07T16:38:43;6.10;99.90
28773;DHT22;15925;51.222;5.678;2023-02-07T16:41:24;6.00;99.90
28773;DHT22;15925;51.222;5.678;2023-02-07T16:43:55;6.00;99.90
28773;DHT22;15925;51.222;5.678;2023-02-07T16:46:21;5.90;99.90
28773;DHT22;15925;51.222;5.678;2023-02-07T16:48:47;5.80;99.90
28773;DHT22;15925;51.222;5.678;2023-02-07T16:51:12;5.70;99.90
28773;DHT22;15925;51.222;5.678;2023-02-07T16:53:38;5.50;99.90
28773;DHT22;15925;51.222;5.678;2023-02-07T16:56:04;5.40;99.90
28773;DHT22;15925;51.222;5.678;2023-02-07T16:58:30;5.30;99.90
28773;DHT22;15925;51.222;5.678;2023-02-07T17:00:57;5.20;99.90
28773;DHT22;15925;51.222;5.678;2023-02-07T17:03:22;5.20;99.90
28773;DHT22;15925;51.222;5.678;2023-02-07T17:05:49;4.90;99.90
28773;DHT22;15925;51.222;5.678;2023-02-07T17:08:15;4.80;99.90
28773;DHT22;15925;51.222;5.678;2023-02-07T17:10:42;4.50;99.90
28773;DHT22;15925;51.222;5.678;2023-02-07T17:13:11;4.70;99.90
28773;DHT22;15925;51.222;5.678;2023-02-07T17:15:36;4.70;99.90
28773;DHT22;15925;51.222;5.678;2023-02-07T17:18:02;4.50;99.90
28773;DHT22;15925;51.222;5.678;2023-02-07T17:20:29;4.50;99.90
28773;DHT22;15925;51.222;5.678;2023-02-07T17:22:57;4.50;99.90
28773;DHT22;15925;51.222;5.678;2023-02-07T17:25:24;4.30;99.90
28773;DHT22;15925;51.222;5.678;2023-02-07T17:27:49;4.30;99.90
28773;DHT22;15925;51.222;5.678;2023-02-07T17:30:16;4.10;99.90
28773;DHT22;15925;51.222;5.678;2023-02-07T17:32:42;3.80;99.90
28773;DHT22;15925;51.222;5.678;2023-02-07T17:35:08;4.00;99.90
28773;DHT22;15925;51.222;5.678;2023-02-07T17:37:34;4.00;99.90
28773;DHT22;15925;51.222;5.678;2023-02-07T17:39:59;3.90;99.90
28773;DHT22;15925;51.222;5.678;2023-02-07T17:42:25;3.90;99.90
28773;DHT22;15925;51.222;5.678;2023-02-07T17:44:51;3.90;99.90
28773;DHT22;15925;51.222;5.678;2023-02-07T17:47:16;3.90;99.90
28773;DHT22;15925;51.222;5.678;2023-02-07T17:49:42;3.80;99.90
28773;DHT22;15925;51.222;5.678;2023-02-07T17:52:08;3.90;99.90
28773;DHT22;15925;51.222;5.678;2023-02-07T17:54:37;3.80;99.90
28773;DHT22;15925;51.222;5.678;2023-02-07T17:57:07;3.80;99.90
28773;DHT22;15925;51.222;5.678;2023-02-07T17:59:35;3.70;99.90
28773;DHT22;15925;51.222;5.678;2023-02-07T18:02:01;3.70;99.90
28773;DHT22;15925;51.222;5.678;2023-02-07T18:04:28;3.60;99.90